createdAt,value
2023-11-06T00:01:35.195Z,4.45
2023-11-06T00:06:38.240Z,4.50
2023-11-06T00:11:42.178Z,4.40
2023-11-06T00:16:44.951Z,5.65
2023-11-06T00:21:47.574Z,5.10
2023-11-06T00:26:50.194Z,4.88
2023-11-06T00:31:52.808Z,5.93
2023-11-06T00:36:55.620Z,5.35
2023-11-06T00:41:58.327Z,4.93
2023-11-06T00:47:01.004Z,4.90
2023-11-06T00:52:04.267Z,5.18
2023-11-06T00:57:06.994Z,5.30
2023-11-06T01:02:09.639Z,6.15
2023-11-06T01:07:12.332Z,5.82
2023-11-06T01:12:15.064Z,6.75
2023-11-06T01:17:17.837Z,6.63
2023-11-06T01:22:31.101Z,5.97
2023-11-06T01:27:41.894Z,6.68
2023-11-06T01:32:44.781Z,6.35
2023-11-06T01:37:48.485Z,6.85
2023-11-06T01:42:53.887Z,7.18
2023-11-06T01:47:56.757Z,6.70
2023-11-06T01:53:06.058Z,6.28
2023-11-06T01:58:08.753Z,5.95
2023-11-06T02:03:12.264Z,7.15
2023-11-06T02:08:17.679Z,7.22
2023-11-06T02:13:21.446Z,8.38
2023-11-06T02:18:24.200Z,7.15
2023-11-06T02:23:27.739Z,7.05
2023-11-06T02:28:30.620Z,7.05
2023-11-06T02:33:33.327Z,7.05
2023-11-06T02:38:37.562Z,6.25
2023-11-06T02:43:40.193Z,7.07
2023-11-06T02:48:43.321Z,6.20
2023-11-06T02:53:46.006Z,5.18
2023-11-06T02:58:48.715Z,6.00
2023-11-06T03:03:52.206Z,5.53
2023-11-06T03:08:55.720Z,5.55
2023-11-06T03:13:58.310Z,6.10
2023-11-06T03:19:00.996Z,5.70
2023-11-06T03:24:03.721Z,6.28
2023-11-06T03:29:06.551Z,6.60
2023-11-06T03:34:09.317Z,6.88
2023-11-06T03:39:11.950Z,6.57
2023-11-06T03:44:15.400Z,8.00
2023-11-06T03:49:18.124Z,6.60
2023-11-06T03:54:21.341Z,9.13
2023-11-06T03:59:23.924Z,8.75
2023-11-06T04:04:26.810Z,10.68
2023-11-06T04:09:29.445Z,8.48
2023-11-06T04:14:32.133Z,7.35
2023-11-06T04:19:34.880Z,7.80
2023-11-06T04:24:37.531Z,8.05
2023-11-06T04:29:40.103Z,8.60
2023-11-06T04:34:43.015Z,9.32
2023-11-06T04:39:45.635Z,8.40
2023-11-06T04:44:48.333Z,8.70
2023-11-06T04:49:51.105Z,8.85
2023-11-06T04:54:53.713Z,8.23
2023-11-06T04:59:56.473Z,10.07
2023-11-06T05:04:59.236Z,8.48
2023-11-06T05:10:02.360Z,8.85
2023-11-06T05:15:07.342Z,8.23
2023-11-06T05:20:11.435Z,10.38
2023-11-06T05:25:14.245Z,10.25
2023-11-06T05:30:16.912Z,10.45
2023-11-06T05:35:19.654Z,10.95
2023-11-06T05:40:22.410Z,10.20
2023-11-06T05:45:25.031Z,7.05
2023-11-06T05:50:27.717Z,10.20
2023-11-06T05:55:30.318Z,10.63
2023-11-06T06:00:32.962Z,9.90
2023-11-06T06:05:35.940Z,9.77
2023-11-06T06:10:38.754Z,9.82
2023-11-06T06:15:41.390Z,10.95
2023-11-06T06:20:44.045Z,9.95
2023-11-06T06:25:46.956Z,7.95
2023-11-06T06:30:50.050Z,9.82
2023-11-06T06:35:52.660Z,10.35
2023-11-06T06:40:55.721Z,9.65
2023-11-06T06:45:58.338Z,9.93
2023-11-06T06:51:02.788Z,6.65
2023-11-06T06:56:05.899Z,8.73
2023-11-06T07:01:09.680Z,9.45
2023-11-06T07:06:12.871Z,8.52
2023-11-06T07:11:15.651Z,8.75
2023-11-06T07:16:18.278Z,9.07
2023-11-06T07:21:20.878Z,6.68
2023-11-06T07:26:23.978Z,8.68
2023-11-06T07:31:26.656Z,8.82
2023-11-06T07:36:29.238Z,9.50
2023-11-06T07:41:31.921Z,8.98
2023-11-06T07:46:34.518Z,8.90
2023-11-06T07:51:37.103Z,7.97
2023-11-06T07:56:39.755Z,8.43
2023-11-06T08:01:42.613Z,7.47
2023-11-06T08:06:45.278Z,7.40
2023-11-06T08:11:50.243Z,9.60
2023-11-06T08:16:53.695Z,9.60
2023-11-06T08:21:58.945Z,9.48
2023-11-06T08:27:03.340Z,9.23
2023-11-06T08:32:06.486Z,7.40
2023-11-06T08:37:12.433Z,4.65
2023-11-06T08:42:16.598Z,4.82
2023-11-06T08:47:20.639Z,6.65
2023-11-06T08:52:23.486Z,6.30
2023-11-06T08:57:26.263Z,6.47
2023-11-06T09:02:29.219Z,6.53
2023-11-06T09:07:32.211Z,6.53
2023-11-06T09:12:35.038Z,7.38
2023-11-06T09:17:37.696Z,8.13
2023-11-06T09:22:42.116Z,7.50
2023-11-06T09:27:47.321Z,8.55
2023-11-06T09:32:52.345Z,6.80
2023-11-06T09:37:55.013Z,7.03
2023-11-06T09:42:57.852Z,7.32
2023-11-06T09:48:03.885Z,7.00
2023-11-06T09:53:06.932Z,6.78
2023-11-06T09:58:12.385Z,8.02
2023-11-06T10:03:16.198Z,8.02
2023-11-06T10:08:32.694Z,6.57
2023-11-06T10:13:55.437Z,5.93
2023-11-06T10:19:17.802Z,6.50
2023-11-06T10:24:20.559Z,6.10
2023-11-06T10:29:23.267Z,7.78
2023-11-06T10:34:28.572Z,8.00
2023-11-06T10:39:35.025Z,8.00
2023-11-06T10:44:39.200Z,7.25
2023-11-06T10:49:51.672Z,6.70
2023-11-06T10:54:57.837Z,6.88
2023-11-06T11:00:12.443Z,5.68
2023-11-06T11:05:34.959Z,6.35
2023-11-06T11:10:39.577Z,6.35
2023-11-06T11:15:44.305Z,5.97
2023-11-06T11:20:54.260Z,6.30
2023-11-06T11:26:05.688Z,6.25
2023-11-06T11:31:49.067Z,7.93
2023-11-06T11:36:51.828Z,10.45
2023-11-06T11:42:00.598Z,12.75
2023-11-06T11:47:05.608Z,13.23
2023-11-06T11:52:09.947Z,7.50
2023-11-06T11:57:13.022Z,6.20
2023-11-06T12:02:30.781Z,6.30
2023-11-06T12:07:41.858Z,4.85
2023-11-06T12:12:44.537Z,5.45
2023-11-06T12:17:47.518Z,6.57
2023-11-06T12:22:53.660Z,5.55
2023-11-06T12:28:02.948Z,7.30
2023-11-06T12:33:19.152Z,7.53
2023-11-06T12:38:37.181Z,9.68
2023-11-06T12:43:40.382Z,9.63
2023-11-06T13:59:30.235Z,10.80
2023-11-06T14:04:36.821Z,12.07
2023-11-06T14:09:48.178Z,10.48
2023-11-06T14:14:51.670Z,7.78
2023-11-06T14:19:54.376Z,7.30
2023-11-06T14:24:57.112Z,8.30
2023-11-06T14:30:01.109Z,9.40
2023-11-06T14:35:05.029Z,9.32
2023-11-06T14:40:14.930Z,9.80
2023-11-06T14:45:19.433Z,9.98
2023-11-06T14:55:25.206Z,9.02
2023-11-06T15:00:28.438Z,9.68
2023-11-06T15:05:33.077Z,9.65
2023-11-06T15:10:36.671Z,10.73
2023-11-06T15:15:41.464Z,11.65
2023-11-06T15:20:45.535Z,10.95
2023-11-06T15:25:48.981Z,11.45
2023-11-06T15:30:52.928Z,10.82
2023-11-06T15:35:56.662Z,11.77
2023-11-06T15:41:05.964Z,10.60
2023-11-06T15:46:14.382Z,10.40
2023-11-06T15:51:24.023Z,10.55
2023-11-06T15:56:26.896Z,11.38
2023-11-06T16:01:31.313Z,11.40
2023-11-06T16:06:35.606Z,11.50
2023-11-06T16:11:42.213Z,11.70
2023-11-06T16:16:46.096Z,11.45
2023-11-06T16:21:49.722Z,11.63
2023-11-06T16:26:52.465Z,11.07
2023-11-06T16:31:57.744Z,12.88
2023-11-06T16:37:36.278Z,12.00
2023-11-06T16:42:39.759Z,11.77
2023-11-06T16:47:43.175Z,11.90
2023-11-06T16:52:46.211Z,11.95
2023-11-06T16:57:49.841Z,12.25
2023-11-06T17:02:53.825Z,10.77
2023-11-06T17:07:58.721Z,12.60
2023-11-06T17:13:01.408Z,12.35
2023-11-06T17:18:06.258Z,12.77
2023-11-06T17:23:09.027Z,13.63
2023-11-06T17:28:11.611Z,11.93
2023-11-06T17:33:14.322Z,12.30
2023-11-06T17:38:17.411Z,11.98
2023-11-06T17:43:20.442Z,13.35
2023-11-06T17:48:23.487Z,11.60
2023-11-06T17:53:26.925Z,11.57
2023-11-06T17:58:30.171Z,12.40
2023-11-06T18:03:33.153Z,12.52
2023-11-06T18:08:38.256Z,12.20
2023-11-06T18:13:45.139Z,11.77
2023-11-06T18:18:48.480Z,13.95
2023-11-06T18:23:51.196Z,10.93
2023-11-06T18:28:53.836Z,13.57
2023-11-06T18:33:56.720Z,12.90
2023-11-06T18:38:59.613Z,12.50
2023-11-06T18:44:02.276Z,12.90
2023-11-06T18:49:06.286Z,13.05
2023-11-06T18:54:08.955Z,13.70
2023-11-06T18:59:11.954Z,12.20
2023-11-06T19:04:14.607Z,14.10
2023-11-06T19:09:18.851Z,13.50
2023-11-06T19:14:22.270Z,11.77
2023-11-06T19:19:25.611Z,13.43
2023-11-06T19:24:28.194Z,12.73
2023-11-06T19:29:31.000Z,12.98
2023-11-06T19:34:33.779Z,12.98
2023-11-06T19:39:36.822Z,12.35
2023-11-06T19:44:39.456Z,14.25
2023-11-06T19:49:42.056Z,12.48
2023-11-06T19:54:44.910Z,14.25
2023-11-06T19:59:58.039Z,11.85
2023-11-06T20:05:16.519Z,13.23
2023-11-06T20:10:19.614Z,12.30
2023-11-06T20:15:22.301Z,12.00
2023-11-06T20:20:24.883Z,12.57
2023-11-06T20:25:27.944Z,12.25
2023-11-06T20:30:30.600Z,10.80
2023-11-06T20:35:33.326Z,12.32
2023-11-06T20:40:36.076Z,13.63
2023-11-06T20:45:38.744Z,13.85
2023-11-06T20:50:41.371Z,11.80
2023-11-06T20:55:44.076Z,12.90
2023-11-06T21:00:48.811Z,13.05
2023-11-06T21:05:51.384Z,12.20
2023-11-06T21:10:54.015Z,12.68
2023-11-06T21:15:57.552Z,12.45
2023-11-06T21:21:00.202Z,12.25
2023-11-06T21:26:03.785Z,11.35
2023-11-06T21:31:06.346Z,11.48
2023-11-06T21:36:09.459Z,13.63
2023-11-06T21:41:12.038Z,13.13
2023-11-06T21:46:14.814Z,13.18
2023-11-06T21:51:17.696Z,11.90
2023-11-06T21:56:20.419Z,11.98
2023-11-06T22:01:24.031Z,13.50
2023-11-06T22:06:26.905Z,12.85
2023-11-06T22:11:29.581Z,14.23
2023-11-06T22:16:32.237Z,11.75
2023-11-06T22:21:34.802Z,14.88
2023-11-06T22:26:37.509Z,15.00
2023-11-06T22:31:44.441Z,13.10
2023-11-06T22:36:47.281Z,13.38
2023-11-06T22:41:49.977Z,14.30
2023-11-06T22:46:53.062Z,12.20
2023-11-06T22:51:56.391Z,13.60
2023-11-06T22:56:59.018Z,13.98
2023-11-06T23:02:03.643Z,12.95
2023-11-06T23:07:06.708Z,12.77
2023-11-06T23:12:09.810Z,11.38
2023-11-06T23:17:12.570Z,10.65
2023-11-06T23:22:16.170Z,11.50
2023-11-06T23:27:21.200Z,10.27
2023-11-06T23:32:23.867Z,9.50
2023-11-06T23:37:26.461Z,8.43
2023-11-06T23:42:29.632Z,7.75
2023-11-06T23:47:32.481Z,6.45
2023-11-06T23:52:35.284Z,6.18
2023-11-06T23:57:38.089Z,5.45
